Time;durP1;ratioP1;P1;durP2;ratioP2;P2;SDS_P1;SDS_P2;PMS_P1;PMS_P2;Temp;Humidity;BMP_temperature;BMP_pressure;BME280_temperature;BME280_humidity;BME280_pressure;Samples;Min_cycle;Max_cycle;Signal;HPM_P1;HPM_P2
2023/01/10 00:00:41;;;;;;;61.30;31.83;;;;;;;4.21;100.00;99806.58;4958386;58;1138843;-69
2023/01/10 00:05:48;;;;;;;53.07;29.37;;;;;;;4.20;100.00;99807.51;4902925;58;1138904;-69
2023/01/10 00:10:54;;;;;;;51.13;26.13;;;;;;;4.21;100.00;99805.73;4958550;58;1138720;-72
2023/01/10 00:16:03;;;;;;;49.10;20.40;;;;;;;4.21;100.00;99819.66;4963623;57;1138812;-71
2023/01/10 00:21:09;;;;;;;47.33;24.27;;;;;;;4.21;100.00;99824.89;4977808;58;1138801;-67
2023/01/10 00:26:15;;;;;;;36.63;19.77;;;;;;;4.24;100.00;99834.34;4933367;57;1141018;-71
2023/01/10 00:31:23;;;;;;;36.46;17.76;;;;;;;4.24;100.00;99835.64;5054564;56;1140841;-68
2023/01/10 00:36:29;;;;;;;38.28;19.27;;;;;;;4.24;100.00;99842.19;5033850;56;1140971;-69
2023/01/10 00:46:58;;;;;;;43.55;20.90;;;;;;;4.38;100.00;99849.17;5111060;56;1138727;-67
2023/01/10 00:52:04;;;;;;;40.00;19.50;;;;;;;4.36;100.00;99857.13;5121601;56;1138706;-69
2023/01/10 00:57:09;;;;;;;35.47;17.97;;;;;;;4.33;100.00;99864.32;5141436;56;1138863;-73
2023/01/10 01:02:15;;;;;;;34.33;16.33;;;;;;;4.27;100.00;99860.80;5121593;56;1141014;-73
2023/01/10 01:07:21;;;;;;;34.27;20.57;;;;;;;4.32;100.00;99868.71;5121380;56;1140925;-68
2023/01/10 01:12:27;;;;;;;50.67;27.25;;;;;;;4.38;100.00;99872.73;5121630;56;1140976;-68
2023/01/10 01:17:33;;;;;;;66.80;39.48;;;;;;;4.41;100.00;99876.02;5142006;56;1138708;-73
2023/01/10 01:22:39;;;;;;;67.70;39.53;;;;;;;4.32;100.00;99881.80;5094752;56;1138702;-74
2023/01/10 01:27:44;;;;;;;62.63;36.43;;;;;;;4.27;100.00;99894.82;5037009;56;1139254;-71
2023/01/10 01:32:51;;;;;;;56.68;35.03;;;;;;;4.19;100.00;99896.58;5058170;57;1138979;-73
2023/01/10 01:37:57;;;;;;;49.97;27.70;;;;;;;4.15;100.00;99904.23;5044821;56;1138810;-69
2023/01/10 01:43:04;;;;;;;45.73;24.30;;;;;;;4.12;100.00;99909.69;5038703;56;1138783;-72
2023/01/10 01:48:21;;;;;;;52.03;24.07;;;;;;;4.15;100.00;99919.94;5064563;57;1140789;-72
2023/01/10 01:53:40;;;;;;;37.43;20.50;;;;;;;4.15;100.00;99923.40;5043929;57;1140921;-73
2023/01/10 01:58:53;;;;;;;38.48;21.37;;;;;;;4.15;100.00;99935.64;5040491;57;1140722;-71
2023/01/10 02:04:12;;;;;;;44.27;22.73;;;;;;;4.16;100.00;99937.33;5048959;56;1140816;-70
2023/01/10 02:09:34;;;;;;;34.57;19.93;;;;;;;4.18;100.00;99938.92;5040585;56;1140785;-72
2023/01/10 02:14:42;;;;;;;37.20;19.67;;;;;;;4.08;100.00;99932.58;5040876;57;1140972;-72
2023/01/10 02:20:06;;;;;;;47.23;21.63;;;;;;;4.18;100.00;99947.24;4984710;57;1140902;-69
2023/01/10 02:25:41;;;;;;;41.00;21.83;;;;;;;4.12;100.00;99955.02;4977859;58;1140890;-68
2023/01/10 02:31:25;;;;;;;47.10;21.70;;;;;;;4.07;100.00;99953.59;5014388;56;1140784;-71
2023/01/10 02:36:47;;;;;;;37.40;20.12;;;;;;;4.12;100.00;99964.64;5099157;56;1140897;-74
2023/01/10 02:42:15;;;;;;;42.03;23.70;;;;;;;4.20;100.00;99962.39;5076577;56;1138716;-72
2023/01/10 02:47:21;;;;;;;43.63;23.33;;;;;;;4.19;100.00;99967.25;5105747;56;1138776;-71
2023/01/10 02:52:30;;;;;;;38.83;21.80;;;;;;;4.14;100.00;99965.36;5142110;56;1138820;-71
2023/01/10 02:57:49;;;;;;;35.92;20.50;;;;;;;4.09;100.00;99964.81;5121901;56;1138807;-71
2023/01/10 03:03:31;;;;;;;32.78;18.00;;;;;;;4.06;100.00;99964.53;5119309;56;1140909;-69
2023/01/10 03:08:53;;;;;;;36.17;20.17;;;;;;;3.95;100.00;99972.18;4961835;57;1140948;-70
2023/01/10 03:14:02;;;;;;;42.13;22.83;;;;;;;3.92;100.00;99974.97;4981076;58;1138862;-73
2023/01/10 03:19:17;;;;;;;39.87;22.57;;;;;;;3.85;100.00;99991.94;4961361;58;1138879;-73
2023/01/10 03:24:30;;;;;;;42.83;20.47;;;;;;;3.77;100.00;99995.02;4961394;58;1138719;-68
2023/01/10 03:29:52;;;;;;;36.10;19.35;;;;;;;3.71;100.00;100004.98;4960350;58;1139191;-69
2023/01/10 03:34:59;;;;;;;40.70;20.97;;;;;;;3.66;100.00;100012.27;4941014;58;1141099;-69
2023/01/10 03:40:21;;;;;;;35.53;19.90;;;;;;;3.66;100.00;100031.88;4888499;58;1140961;-70
2023/01/10 03:45:34;;;;;;;37.20;21.10;;;;;;;3.62;100.00;100032.97;5063829;56;1141132;-73
2023/01/10 03:50:42;;;;;;;45.63;21.23;;;;;;;3.62;100.00;100040.36;5127096;56;1142967;-69
2023/01/10 03:55:47;;;;;;;56.33;25.00;;;;;;;3.60;100.00;100048.75;5147596;56;1140810;-71
2023/01/10 04:00:53;;;;;;;53.80;24.20;;;;;;;3.59;100.00;100043.14;5121588;56;1141014;-74
2023/01/10 04:06:01;;;;;;;43.03;21.33;;;;;;;3.53;100.00;100057.84;5126762;56;1140962;-72
2023/01/10 04:11:06;;;;;;;43.50;22.57;;;;;;;3.47;100.00;100076.05;5109751;56;1140840;-68
2023/01/10 04:16:12;;;;;;;46.27;21.20;;;;;;;3.44;100.00;100082.75;5042592;56;1140860;-68
2023/01/10 04:21:18;;;;;;;42.83;20.70;;;;;;;3.44;100.00;100088.44;5091643;56;1140945;-69
2023/01/10 04:26:25;;;;;;;41.28;20.68;;;;;;;3.46;100.00;100095.27;5126880;56;1143223;-67
2023/01/10 04:31:31;;;;;;;35.37;20.53;;;;;;;3.50;100.00;100106.41;5084639;56;1140937;-73
2023/01/10 04:36:37;;;;;;;41.53;22.17;;;;;;;3.47;100.00;100118.34;5024336;57;1140936;-72
2023/01/10 04:41:43;;;;;;;35.63;21.53;;;;;;;3.49;100.00;100134.78;4997168;57;1140777;-71
2023/01/10 04:46:48;;;;;;;37.93;19.90;;;;;;;3.49;100.00;100143.47;5064527;57;1140893;-69
2023/01/10 04:51:54;;;;;;;29.17;17.60;;;;;;;3.49;100.00;100160.47;5044932;57;1140878;-72
2023/01/10 04:57:00;;;;;;;31.37;17.07;;;;;;;3.53;100.00;100163.73;5040375;57;1141016;-71
2023/01/10 05:02:06;;;;;;;27.63;15.90;;;;;;;3.60;100.00;100178.64;5046849;57;1141038;-70
2023/01/10 05:07:12;;;;;;;28.35;16.30;;;;;;;3.62;100.00;100187.25;5023315;57;1143042;-70
2023/01/10 05:12:17;;;;;;;27.60;15.60;;;;;;;3.60;100.00;100193.02;5013008;57;1142953;-69
2023/01/10 05:17:23;;;;;;;27.70;14.60;;;;;;;3.55;100.00;100198.48;4987752;56;1143123;-67
2023/01/10 05:22:29;;;;;;;25.20;14.70;;;;;;;3.52;100.00;100198.65;5001953;57;1142963;-69
2023/01/10 05:27:35;;;;;;;34.23;16.20;;;;;;;3.54;100.00;100205.48;4962524;58;1152502;-68
2023/01/10 05:32:41;;;;;;;30.40;17.47;;;;;;;3.65;100.00;100206.70;4943122;58;1140941;-70
2023/01/10 05:37:47;;;;;;;27.17;16.73;;;;;;;3.68;100.00;100220.89;4960275;57;1141112;-74
2023/01/10 05:42:52;;;;;;;31.50;16.13;;;;;;;3.65;100.00;100236.78;4891413;58;1140852;-67
2023/01/10 05:47:58;;;;;;;26.60;13.53;;;;;;;3.60;100.00;100248.78;4957646;58;1140837;-69
2023/01/10 05:53:04;;;;;;;28.30;15.43;;;;;;;3.58;100.00;100249.78;4972904;58;1141107;-66
2023/01/10 05:58:12;;;;;;;28.47;13.80;;;;;;;3.65;100.00;100265.55;4957557;58;1142948;-66
2023/01/10 06:03:18;;;;;;;22.57;13.70;;;;;;;3.68;100.00;100281.05;4924319;58;1143068;-69
2023/01/10 06:08:24;;;;;;;22.67;12.67;;;;;;;3.71;100.00;100286.12;4957576;58;1142953;-70
2023/01/10 06:13:30;;;;;;;20.03;11.70;;;;;;;3.71;100.00;100299.20;5032672;57;1143123;-68
2023/01/10 06:18:35;;;;;;;23.57;11.53;;;;;;;3.67;100.00;100308.13;4925122;58;1152700;-68
2023/01/10 06:23:41;;;;;;;18.45;10.60;;;;;;;3.65;100.00;100314.77;4935303;58;1142929;-68
2023/01/10 06:28:47;;;;;;;19.70;10.75;;;;;;;3.69;100.00;100332.42;4965602;58;1143162;-67
2023/01/10 06:33:53;;;;;;;19.53;11.97;;;;;;;3.68;100.00;100337.27;4941259;57;1141207;-67
2023/01/10 06:38:59;;;;;;;25.17;13.50;;;;;;;3.70;100.00;100340.66;4898845;57;1141099;-68
2023/01/10 06:44:04;;;;;;;21.90;13.07;;;;;;;3.70;100.00;100355.05;4977215;57;1140911;-69
2023/01/10 06:49:11;;;;;;;18.30;11.40;;;;;;;3.69;100.00;100363.81;5040241;57;1140865;-68
2023/01/10 06:54:16;;;;;;;18.53;11.17;;;;;;;3.66;100.00;100375.30;5040166;57;1140925;-73
2023/01/10 06:59:22;;;;;;;18.37;11.57;;;;;;;3.68;100.00;100376.50;5012451;57;1142962;-71
2023/01/10 07:04:28;;;;;;;19.97;11.20;;;;;;;3.68;100.00;100383.89;5051450;57;1142970;-68
2023/01/10 07:09:34;;;;;;;20.95;9.75;;;;;;;3.71;100.00;100392.89;4958158;58;1142992;-69
2023/01/10 07:14:41;;;;;;;19.40;9.80;;;;;;;3.68;100.00;100391.73;5039733;57;1140955;-73
2023/01/10 07:19:47;;;;;;;17.37;10.97;;;;;;;3.74;100.00;100406.28;5024084;57;1140833;-73
2023/01/10 07:24:53;;;;;;;15.03;8.77;;;;;;;3.74;100.00;100411.51;4879508;58;1143016;-73
2023/01/10 07:30:00;;;;;;;16.47;9.10;;;;;;;3.76;100.00;100414.44;4929391;58;1140953;-67
2023/01/10 07:35:06;;;;;;;15.43;10.07;;;;;;;3.81;100.00;100429.91;4897990;58;1140924;-71
2023/01/10 07:40:12;;;;;;;16.10;9.63;;;;;;;3.83;100.00;100440.65;4881388;58;1143353;-71
2023/01/10 07:45:18;;;;;;;21.80;9.63;;;;;;;3.84;100.00;100437.57;4957113;58;1141107;-71
2023/01/10 07:50:24;;;;;;;17.52;10.60;;;;;;;3.85;100.00;100455.80;5044051;57;1141002;-72
2023/01/10 07:55:33;;;;;;;15.37;8.73;;;;;;;3.86;100.00;100460.12;5058312;57;1142890;-67
2023/01/10 08:00:37;;;;;;;18.17;10.15;;;;;;;3.88;100.00;100466.12;5033549;57;1140795;-69
2023/01/10 08:05:44;;;;;;;21.70;11.68;;;;;;;3.87;100.00;100474.89;5036912;56;1142801;-72
2023/01/10 08:10:49;;;;;;;18.03;11.07;;;;;;;3.92;100.00;100483.83;5056334;57;1143037;-71
2023/01/10 08:15:55;;;;;;;17.83;12.33;;;;;;;3.97;100.00;100493.61;5036793;57;1143065;-71
2023/01/10 08:21:01;;;;;;;18.43;9.70;;;;;;;4.04;100.00;100499.36;5001839;57;1142980;-69
2023/01/10 08:26:07;;;;;;;18.50;13.10;;;;;;;4.06;100.00;100495.74;4981724;58;1140846;-70
2023/01/10 08:31:13;;;;;;;48.67;23.07;;;;;;;4.07;100.00;100514.91;5021823;57;1142980;-71
2023/01/10 08:36:21;;;;;;;26.47;17.37;;;;;;;4.07;100.00;100510.52;5038731;56;1143081;-68
2023/01/10 08:41:26;;;;;;;20.68;12.35;;;;;;;4.09;100.00;100513.06;5049565;56;1143117;-74
2023/01/10 08:46:33;;;;;;;22.27;11.67;;;;;;;4.09;100.00;100527.45;5070673;56;1142936;-70
2023/01/10 08:51:39;;;;;;;25.57;15.23;;;;;;;4.09;100.00;100527.45;5049063;56;1142931;-72
2023/01/10 08:56:45;;;;;;;22.15;12.10;;;;;;;4.10;100.00;100534.39;5043910;56;1142992;-69
2023/01/10 09:01:51;;;;;;;26.50;14.10;;;;;;;4.13;100.00;100543.37;5062772;56;1142812;-67
2023/01/10 09:06:57;;;;;;;20.33;12.27;;;;;;;4.14;100.00;100552.91;5066117;56;1142810;-68
2023/01/10 09:12:53;;;;;;;24.47;14.13;;;;;;;4.17;100.00;100561.47;5041756;57;1142839;-69
2023/01/10 09:17:10;;;;;;;24.18;14.07;;;;;;;4.21;100.00;100570.87;5055998;57;1143129;-71
2023/01/10 09:22:16;;;;;;;26.37;15.80;;;;;;;4.27;100.00;100585.42;5102509;56;1143033;-71
2023/01/10 09:27:22;;;;;;;26.80;15.17;;;;;;;4.30;100.00;100591.80;5053550;56;1143105;-69
2023/01/10 09:32:27;;;;;;;25.80;14.97;;;;;;;4.32;100.00;100591.72;5042066;56;1143002;-72
2023/01/10 09:37:33;;;;;;;26.67;16.23;;;;;;;4.33;100.00;100603.42;5042445;56;1142897;-71
2023/01/10 09:43:10;;;;;;;22.47;13.27;;;;;;;4.36;100.00;100605.05;5056857;56;1152478;-70
2023/01/10 09:48:42;;;;;;;21.53;12.40;;;;;;;4.39;100.00;100610.98;5074707;56;1142887;-67
2023/01/10 09:53:50;;;;;;;17.20;10.88;;;;;;;4.42;100.00;100614.77;5104671;56;1142891;-73
2023/01/10 09:58:57;;;;;;;17.63;9.37;;;;;;;4.44;100.00;100610.27;5098547;56;1140811;-68
2023/01/10 10:04:27;;;;;;;15.73;9.77;;;;;;;4.49;100.00;100616.59;5005562;57;1138706;-71
2023/01/10 10:09:35;;;;;;;18.93;9.87;;;;;;;4.52;100.00;100618.59;5074669;56;1139277;-69
2023/01/10 10:15:14;;;;;;;17.63;10.60;;;;;;;4.57;100.00;100620.99;5113381;56;1138775;-71
2023/01/10 10:20:30;;;;;;;19.20;10.80;;;;;;;4.60;100.00;100619.50;5147862;56;1143008;-72
2023/01/10 10:26:12;;;;;;;21.83;11.00;;;;;;;4.64;100.00;100621.50;5073741;56;1142912;-68
2023/01/10 10:31:34;;;;;;;20.50;11.73;;;;;;;4.65;100.00;100617.50;5043294;57;1140860;-69
2023/01/10 10:36:49;;;;;;;24.57;12.40;;;;;;;4.68;100.00;100625.20;5043462;56;1140952;-71
2023/01/10 10:41:56;;;;;;;26.80;12.57;;;;;;;4.71;100.00;100630.76;5063009;56;1140909;-71
2023/01/10 10:47:02;;;;;;;23.83;11.13;;;;;;;4.72;100.00;100634.61;5109523;56;1140959;-73
2023/01/10 10:52:18;;;;;;;25.97;13.27;;;;;;;4.76;100.00;100637.44;5126972;56;1140839;-68
2023/01/10 10:57:28;;;;;;;30.00;12.47;;;;;;;4.79;100.00;100650.84;5080628;56;1140856;-70
2023/01/10 11:02:47;;;;;;;37.37;17.87;;;;;;;4.83;100.00;100645.84;5062705;57;1140905;-69
2023/01/10 11:07:57;;;;;;;29.40;13.57;;;;;;;4.85;100.00;100664.95;4943250;57;1140948;-67
2023/01/10 11:13:07;;;;;;;26.43;13.63;;;;;;;4.89;100.00;100666.47;4954969;57;1140886;-73
2023/01/10 11:18:26;;;;;;;28.97;15.93;;;;;;;4.92;100.00;100670.24;4974633;58;1141134;-68
2023/01/10 11:23:45;;;;;;;32.90;15.90;;;;;;;4.97;100.00;100681.34;4957601;57;1141083;-70
2023/01/10 11:28:55;;;;;;;26.50;16.10;;;;;;;5.01;100.00;100686.82;4957798;58;1140823;-69
2023/01/10 11:34:05;;;;;;;24.60;14.13;;;;;;;5.07;100.00;100700.91;4968483;58;1143066;-71
2023/01/10 11:39:15;;;;;;;28.60;16.32;;;;;;;5.12;100.00;100705.45;4935505;57;1143019;-71
2023/01/10 11:44:28;;;;;;;24.77;15.20;;;;;;;5.18;100.00;100710.85;4904009;58;1142856;-71
2023/01/10 11:49:38;;;;;;;30.93;15.60;;;;;;;5.22;100.00;100711.05;5096651;56;1146055;-72
2023/01/10 11:54:43;;;;;;;27.57;16.20;;;;;;;5.28;100.00;100728.64;5062775;56;1143142;-69
2023/01/10 12:00:05;;;;;;;25.05;15.53;;;;;;;5.33;100.00;100732.34;5042379;56;1143172;-72
2023/01/10 12:05:19;;;;;;;24.85;15.72;;;;;;;5.36;100.00;100744.41;5059796;55;1143255;-72
2023/01/10 12:10:28;;;;;;;31.70;18.30;;;;;;;5.39;100.00;100743.80;5047614;56;1143215;-69
2023/01/10 12:15:34;;;;;;;39.67;21.47;;;;;;;5.38;100.00;100746.03;5138113;56;1142857;-74
2023/01/10 12:20:49;;;;;;;34.98;17.87;;;;;;;5.40;100.00;100752.05;5093236;56;1142991;-66
2023/01/10 12:25:58;;;;;;;27.77;17.33;;;;;;;5.42;100.00;100754.59;5068692;56;1142870;-69
2023/01/10 12:31:04;;;;;;;30.50;18.60;;;;;;;5.42;100.00;100755.91;5146195;56;1142984;-67
2023/01/10 12:36:21;;;;;;;26.73;14.93;;;;;;;5.47;100.00;100760.46;5125778;56;1143026;-70
2023/01/10 12:47:38;;;;;;;26.73;17.20;;;;;;;5.68;100.00;100757.98;5125438;56;1142959;-74
2023/01/10 12:53:12;;;;;;;33.50;18.53;;;;;;;5.74;100.00;100762.92;5066229;56;1143013;-69
2023/01/10 12:58:37;;;;;;;41.55;21.40;;;;;;;5.70;100.00;100769.26;5064869;57;1142848;-70
2023/01/10 13:03:46;;;;;;;35.33;17.10;;;;;;;5.68;100.00;100774.20;5017972;57;1143080;-67
2023/01/10 13:08:54;;;;;;;30.35;17.40;;;;;;;5.71;100.00;100762.23;5043987;57;1142924;-67
2023/01/10 13:14:03;;;;;;;24.40;14.03;;;;;;;5.74;100.00;100768.64;4981385;58;1143026;-70
2023/01/10 13:19:18;;;;;;;28.30;14.27;;;;;;;5.77;100.00;100781.59;4963527;57;1142929;-69
2023/01/10 13:24:26;;;;;;;27.53;14.20;;;;;;;5.83;100.00;100778.63;5004735;57;1143218;-74
2023/01/10 13:29:41;;;;;;;19.07;11.28;;;;;;;6.04;100.00;100787.16;5043690;57;1142958;-70
2023/01/10 13:34:47;;;;;;;25.30;13.00;;;;;;;6.05;100.00;100794.95;5057305;57;1142848;-73
2023/01/10 13:39:57;;;;;;;25.12;12.05;;;;;;;6.00;100.00;100814.04;4966243;57;1142882;-67
2023/01/10 13:45:12;;;;;;;23.73;12.00;;;;;;;5.95;100.00;100822.66;5016341;56;1143026;-72
2023/01/10 13:50:32;;;;;;;17.63;11.23;;;;;;;5.91;100.00;100830.30;5008288;57;1142977;-67
2023/01/10 13:55:52;;;;;;;19.03;10.07;;;;;;;5.87;100.00;100839.22;5044676;56;1142940;-65
2023/01/10 14:06:31;;;;;;;16.23;9.60;;;;;;;5.65;100.00;100859.20;5061593;57;1142896;-69
2023/01/10 14:11:50;;;;;;;151.17;71.73;;;;;;;5.56;100.00;100861.81;5040184;57;1230112;-71
2023/01/10 14:17:00;;;;;;;162.40;79.77;;;;;;;5.54;100.00;100870.23;4973859;57;1145185;-69
2023/01/10 14:22:09;;;;;;;59.35;30.97;;;;;;;5.58;100.00;100870.46;5037117;56;1145143;-70
2023/01/10 14:27:17;;;;;;;37.53;22.63;;;;;;;5.59;100.00;100884.43;5076407;56;1142970;-68
2023/01/10 14:32:42;;;;;;;25.67;13.90;;;;;;;5.56;100.00;100891.14;5124881;56;1143058;-71
2023/01/10 14:37:55;;;;;;;21.73;11.10;;;;;;;5.60;100.00;100892.69;5041849;56;1143049;-66
2023/01/10 14:43:06;;;;;;;19.17;11.70;;;;;;;5.64;100.00;100895.55;5061915;56;1142951;-70
2023/01/10 14:48:30;;;;;;;19.77;12.03;;;;;;;5.58;100.00;100895.39;5042090;56;1143034;-67
2023/01/10 14:53:36;;;;;;;23.77;11.50;;;;;;;5.49;100.00;100906.36;5039188;57;1141063;-71
2023/01/10 14:58:41;;;;;;;22.93;13.03;;;;;;;5.39;100.00;100902.94;5037167;57;1150616;-73
2023/01/10 15:03:48;;;;;;;23.05;12.45;;;;;;;5.32;100.00;100905.04;5056966;57;1140840;-70
2023/01/10 15:08:59;;;;;;;28.80;14.60;;;;;;;5.24;100.00;100913.73;5036902;57;1142998;-71
2023/01/10 15:14:09;;;;;;;21.77;12.73;;;;;;;5.15;100.00;100930.78;5031627;56;1142985;-75
2023/01/10 15:19:22;;;;;;;26.67;13.40;;;;;;;5.13;100.00;100936.55;5066875;56;1142850;-72
2023/01/10 15:24:40;;;;;;;18.77;11.20;;;;;;;5.17;100.00;100939.42;5054955;55;1142832;-68
2023/01/10 15:29:46;;;;;;;43.95;25.62;;;;;;;5.15;100.00;100946.51;5122044;56;1142863;-70
2023/01/10 15:34:57;;;;;;;42.05;22.67;;;;;;;5.02;100.00;100952.41;5128396;56;1140800;-71
2023/01/10 15:40:05;;;;;;;193.63;91.90;;;;;;;4.90;100.00;100956.44;5038766;56;1140867;-66
2023/01/10 15:45:37;;;;;;;74.30;38.13;;;;;;;4.86;100.00;100959.70;5080189;56;1143157;-70
2023/01/10 15:50:43;;;;;;;23.15;13.93;;;;;;;4.79;100.00;100963.51;5065864;56;1140862;-71
2023/01/10 15:56:00;;;;;;;17.25;10.50;;;;;;;4.82;100.00;100973.00;5077401;56;1140879;-74
2023/01/10 16:01:06;;;;;;;16.37;10.43;;;;;;;4.80;100.00;100984.01;5107187;56;1143149;-72
2023/01/10 16:06:24;;;;;;;17.53;10.63;;;;;;;4.78;100.00;100987.16;5088140;56;1143118;-70
2023/01/10 16:17:11;;;;;;;77.47;34.80;;;;;;;4.80;100.00;100978.31;5112040;56;1143062;-69
2023/01/10 16:22:19;;;;;;;115.83;51.63;;;;;;;4.88;100.00;100984.52;5054821;56;1143021;-69
2023/01/10 16:27:25;;;;;;;40.93;20.60;;;;;;;4.93;100.00;100985.98;5042158;56;1145219;-70
2023/01/10 16:32:30;;;;;;;67.87;36.47;;;;;;;4.98;100.00;100992.33;5043384;56;1143059;-69
2023/01/10 16:37:37;;;;;;;50.13;26.70;;;;;;;5.04;100.00;100993.83;5065493;56;1143064;-66
2023/01/10 16:48:07;;;;;;;;;;;;;;;5.17;100.00;101007.59;5130509;56;1142893;-69
2023/01/10 16:53:15;;;;;;;132.40;61.63;;;;;;;5.28;100.00;100997.44;5163960;56;976306;-70
2023/01/10 16:58:21;;;;;;;129.87;66.13;;;;;;;5.28;100.00;100997.44;5126677;56;1142961;-68
2023/01/10 17:03:29;;;;;;;105.17;55.17;;;;;;;5.24;100.00;101005.51;5126798;56;1142974;-68
2023/01/10 17:08:35;;;;;;;142.13;72.43;;;;;;;5.10;100.00;101014.03;5126473;56;1143014;-71
2023/01/10 17:13:44;;;;;;;185.40;91.60;;;;;;;5.04;100.00;101020.05;5137614;56;1142912;-69
2023/01/10 17:18:50;;;;;;;207.27;93.27;;;;;;;5.01;100.00;101023.66;5126467;56;1145020;-70
2023/01/10 17:23:56;;;;;;;291.02;130.52;;;;;;;5.00;100.00;101023.26;5126887;56;1145046;-71
2023/01/10 17:29:01;;;;;;;363.87;154.33;;;;;;;5.01;100.00;101015.79;5146336;56;1147141;-68
2023/01/10 17:34:08;;;;;;;237.97;97.03;;;;;;;5.06;100.00;101016.41;5090946;56;1147141;-69
2023/01/10 17:39:14;;;;;;;246.53;101.80;;;;;;;5.12;100.00;101020.52;5123079;56;1145094;-72
2023/01/10 17:44:19;;;;;;;160.13;66.93;;;;;;;5.18;100.00;101017.16;5133707;56;1147264;-68
2023/01/10 17:49:25;;;;;;;210.97;78.87;;;;;;;5.13;100.00;101032.25;5126844;56;1145204;-71
2023/01/10 17:54:31;;;;;;;194.65;83.65;;;;;;;5.10;100.00;101042.88;5096861;56;1143072;-68
2023/01/10 17:59:37;;;;;;;241.40;87.85;;;;;;;5.08;100.00;101041.23;5077767;56;1143002;-69
2023/01/10 18:04:43;;;;;;;158.93;65.57;;;;;;;5.08;100.00;101042.09;5040960;56;1145069;-71
2023/01/10 18:09:49;;;;;;;170.50;70.30;;;;;;;5.11;100.00;101041.95;5082040;56;1145128;-66
2023/01/10 18:14:54;;;;;;;141.92;62.27;;;;;;;5.14;100.00;101039.19;5111600;56;1145107;-70
2023/01/10 18:20:00;;;;;;;160.72;70.80;;;;;;;5.19;100.00;101050.78;5106056;56;1145080;-70
2023/01/10 18:25:07;;;;;;;167.63;72.53;;;;;;;5.20;100.00;101052.00;5097337;56;1144991;-68
2023/01/10 18:30:17;;;;;;;283.90;133.07;;;;;;;5.22;100.00;101052.78;5148483;56;1144968;-72
2023/01/10 18:35:21;;;;;;;185.60;89.00;;;;;;;5.22;100.00;101058.48;5094542;56;1144961;-71
2023/01/10 18:40:26;;;;;;;148.87;65.10;;;;;;;5.21;100.00;101063.34;5104175;56;1142992;-68
2023/01/10 18:45:32;;;;;;;106.83;48.33;;;;;;;5.19;100.00;101070.45;5083615;55;1145112;-69
2023/01/10 18:50:38;;;;;;;123.30;53.80;;;;;;;5.17;100.00;101071.83;5108552;56;1144898;-71
2023/01/10 18:56:05;;;;;;;108.17;49.40;;;;;;;5.15;100.00;101070.20;5104241;56;1145093;-71
2023/01/10 19:01:20;;;;;;;253.83;70.50;;;;;;;5.08;100.00;101074.01;5059939;56;1145142;-73
2023/01/10 19:06:26;;;;;;;145.13;54.30;;;;;;;5.01;100.00;101074.77;4991524;56;1145433;-70
2023/01/10 19:11:32;;;;;;;84.20;33.67;;;;;;;5.02;100.00;101075.62;5012091;57;1145292;-69
2023/01/10 19:16:38;;;;;;;60.33;25.03;;;;;;;5.03;100.00;101083.88;4997729;56;1142975;-68
2023/01/10 19:21:44;;;;;;;48.70;23.23;;;;;;;4.95;100.00;101086.83;4927696;57;1143118;-71
2023/01/10 19:26:51;;;;;;;44.98;21.10;;;;;;;4.89;100.00;101084.02;5057182;57;1143076;-72
2023/01/10 19:31:57;;;;;;;45.43;20.68;;;;;;;4.85;100.00;101077.69;5029468;57;1142917;-71
2023/01/10 19:37:03;;;;;;;57.50;28.83;;;;;;;4.83;100.00;101080.38;4969924;56;1142918;-73
2023/01/10 19:42:09;;;;;;;47.78;23.67;;;;;;;4.81;100.00;101078.74;4931301;56;1142977;-71
2023/01/10 19:47:15;;;;;;;53.83;26.30;;;;;;;4.80;100.00;101080.97;4975153;57;1143012;-70
2023/01/10 19:52:21;;;;;;;40.83;20.50;;;;;;;4.79;100.00;101077.95;4962142;57;1142975;-71
2023/01/10 19:57:27;;;;;;;49.50;25.00;;;;;;;4.76;100.00;101083.33;4963367;57;1142988;-70
2023/01/10 20:02:34;;;;;;;49.37;23.00;;;;;;;4.73;100.00;101082.17;5115775;55;1143020;-69
2023/01/10 20:07:40;;;;;;;57.50;24.33;;;;;;;4.71;100.00;101086.63;5059192;55;1142948;-73
2023/01/10 20:12:46;;;;;;;64.27;27.07;;;;;;;4.69;100.00;101093.70;5075337;56;1142795;-69
2023/01/10 20:17:52;;;;;;;56.65;25.95;;;;;;;4.68;100.00;101091.55;5062254;56;1143145;-72
2023/01/10 20:22:57;;;;;;;57.08;25.62;;;;;;;4.69;100.00;101088.00;5079895;56;1143006;-74
2023/01/10 20:28:03;;;;;;;71.03;28.30;;;;;;;4.71;100.00;101087.94;5114257;55;1143218;-75
2023/01/10 20:33:09;;;;;;;356.63;112.20;;;;;;;4.80;100.00;101091.45;5091335;55;1142816;-69
2023/01/10 20:38:15;;;;;;;358.03;101.93;;;;;;;4.92;100.00;101086.96;5043973;55;1146972;-71
2023/01/10 20:43:21;;;;;;;207.87;68.57;;;;;;;4.99;100.00;101087.55;5050909;55;1147025;-70
2023/01/10 20:48:27;;;;;;;173.47;53.35;;;;;;;4.94;100.00;101075.49;5103854;55;1143048;-68
2023/01/10 20:53:33;;;;;;;341.07;91.57;;;;;;;4.88;100.00;101077.56;5066174;55;1143028;-69
2023/01/10 20:58:39;;;;;;;251.77;69.27;;;;;;;4.84;100.00;101075.98;5056522;56;1142947;-71
2023/01/10 21:03:47;;;;;;;114.77;42.60;;;;;;;4.76;100.00;101074.16;5138299;55;1145235;-69
2023/01/10 21:08:53;;;;;;;44.90;22.77;;;;;;;4.76;100.00;101079.39;5164684;55;1144894;-73
2023/01/10 21:13:59;;;;;;;78.13;29.87;;;;;;;4.72;100.00;101081.33;5156603;55;1142841;-69
2023/01/10 21:19:05;;;;;;;140.37;47.00;;;;;;;4.72;100.00;101075.23;5105242;55;1142856;-71
2023/01/10 21:24:11;;;;;;;56.28;24.05;;;;;;;4.74;100.00;101077.30;5090784;56;1145117;-72
2023/01/10 21:29:17;;;;;;;363.10;99.53;;;;;;;4.73;100.00;101069.08;5070731;57;1142902;-71
2023/01/10 21:34:23;;;;;;;297.97;88.43;;;;;;;4.73;100.00;101076.94;5121095;55;1145175;-71
2023/01/10 21:39:28;;;;;;;267.90;75.53;;;;;;;4.72;100.00;101073.47;5049657;55;1145267;-72
2023/01/10 21:44:34;;;;;;;287.90;83.67;;;;;;;4.72;100.00;101064.75;5070550;55;1144914;-72
2023/01/10 21:49:41;;;;;;;141.30;42.27;;;;;;;4.73;100.00;101067.77;5077680;55;1145095;-71
2023/01/10 21:54:47;;;;;;;86.90;28.80;;;;;;;4.72;100.00;101071.30;5071614;55;1145068;-71
2023/01/10 21:59:55;;;;;;;106.40;41.77;;;;;;;4.69;100.00;101076.22;5116561;55;1142956;-71
2023/01/10 22:05:01;;;;;;;88.77;43.70;;;;;;;4.71;100.00;101066.52;5102008;56;1145162;-69
2023/01/10 22:10:09;;;;;;;40.10;18.10;;;;;;;4.73;100.00;101071.23;5108136;56;1143073;-71
2023/01/10 22:15:15;;;;;;;36.87;18.10;;;;;;;4.72;100.00;101060.82;5100598;56;1142880;-73
2023/01/10 22:20:21;;;;;;;30.17;16.80;;;;;;;4.74;100.00;101064.20;5029636;56;1143044;-70
2023/01/10 22:25:27;;;;;;;40.93;18.37;;;;;;;4.75;100.00;101068.52;5013787;56;1143035;-70
2023/01/10 22:30:33;;;;;;;30.63;15.67;;;;;;;4.75;100.00;101060.20;5013385;57;1142995;-73
2023/01/10 22:35:38;;;;;;;35.43;20.63;;;;;;;4.76;100.00;101074.16;5095370;56;1142944;-72
2023/01/10 22:40:44;;;;;;;35.27;17.13;;;;;;;4.74;100.00;101059.80;5020588;55;1142901;-73
2023/01/10 22:45:50;;;;;;;29.50;16.00;;;;;;;4.76;100.00;101053.19;5087717;55;1142981;-68
2023/01/10 22:50:58;;;;;;;42.13;17.23;;;;;;;4.77;100.00;101052.27;5128746;55;1142861;-70
2023/01/10 22:56:05;;;;;;;33.83;16.52;;;;;;;4.76;100.00;101051.88;5100248;55;1143082;-72
2023/01/10 23:01:11;;;;;;;39.30;20.43;;;;;;;4.76;100.00;101042.71;5044193;56;1142966;-70
2023/01/10 23:06:17;;;;;;;37.60;16.90;;;;;;;4.79;100.00;101046.05;5064148;56;1143103;-73
2023/01/10 23:11:23;;;;;;;26.23;14.90;;;;;;;4.81;100.00;101045.98;5044390;56;1143051;-75
2023/01/10 23:16:29;;;;;;;28.40;14.73;;;;;;;4.78;100.00;101035.63;5043311;56;1142989;-70
2023/01/10 23:21:35;;;;;;;32.42;16.57;;;;;;;4.78;100.00;101025.16;5012514;56;1142970;-69